Time;durP1;ratioP1;P1;durP2;ratioP2;P2;SDS_P1;SDS_P2;PMS_P1;PMS_P2;Temp;Humidity;BMP_temperature;BMP_pressure;BME280_temperature;BME280_humidity;BME280_pressure;Samples;Min_cycle;Max_cycle;Signal;HPM_P1;HPM_P2
2023/01/30 00:00:57;;;;;;;18.20;12.80;;;4.70;53.60;;;;;;5031510;28;20455;-58
2023/01/30 00:03:23;;;;;;;19.67;13.07;;;4.70;53.60;;;;;;5032345;28;20461;-58
2023/01/30 00:05:49;;;;;;;20.30;14.67;;;4.60;53.60;;;;;;5032338;28;20942;-58
2023/01/30 00:08:16;;;;;;;22.53;16.40;;;4.60;53.60;;;;;;5032567;28;20924;-58
2023/01/30 00:10:42;;;;;;;25.50;16.57;;;4.60;53.50;;;;;;5032776;28;20448;-59
2023/01/30 00:13:08;;;;;;;26.60;16.37;;;4.60;53.40;;;;;;5030318;28;20455;-58
2023/01/30 00:15:34;;;;;;;25.17;15.83;;;4.60;53.30;;;;;;5025513;28;20431;-58
2023/01/30 00:17:59;;;;;;;23.60;15.60;;;4.50;53.30;;;;;;5032694;28;20474;-58
2023/01/30 00:20:25;;;;;;;23.40;15.50;;;4.40;53.50;;;;;;5032313;28;20221;-58
2023/01/30 00:22:50;;;;;;;23.60;15.37;;;4.40;53.70;;;;;;5031933;28;20291;-58
2023/01/30 00:25:16;;;;;;;19.87;14.03;;;4.20;54.20;;;;;;5031853;28;20200;-58
2023/01/30 00:27:42;;;;;;;26.70;14.57;;;4.20;54.50;;;;;;5031449;28;20233;-58
2023/01/30 00:30:09;;;;;;;24.60;16.27;;;4.30;54.30;;;;;;5032252;28;20555;-58
2023/01/30 00:32:34;;;;;;;22.10;14.60;;;4.30;54.20;;;;;;5031576;28;20982;-58
2023/01/30 00:35:00;;;;;;;22.30;14.43;;;4.40;54.20;;;;;;5032237;28;20420;-58
2023/01/30 00:37:25;;;;;;;18.13;13.13;;;4.40;54.00;;;;;;5032022;28;20201;-58
2023/01/30 00:39:51;;;;;;;24.30;14.70;;;4.40;54.10;;;;;;5031986;28;20591;-59
2023/01/30 00:47:47;;;;;;;14.30;11.20;;;4.40;54.00;;;;;;5032200;28;20466;-58
2023/01/30 00:50:12;;;;;;;14.77;11.67;;;4.40;53.90;;;;;;5032051;28;20424;-58
2023/01/30 00:52:38;;;;;;;17.80;12.23;;;4.40;53.90;;;;;;5029843;28;20423;-58
2023/01/30 00:55:04;;;;;;;18.87;11.73;;;4.40;53.90;;;;;;5031740;28;20186;-58
2023/01/30 00:57:30;;;;;;;15.33;11.60;;;4.30;54.40;;;;;;5031744;28;20918;-58
2023/01/30 00:59:56;;;;;;;13.30;10.27;;;4.30;54.20;;;;;;5031435;28;20997;-58
2023/01/30 01:02:22;;;;;;;17.57;10.83;;;4.30;53.80;;;;;;5031154;28;20189;-58
2023/01/30 01:04:47;;;;;;;13.10;10.30;;;4.30;53.50;;;;;;5031645;28;20435;-58
2023/01/30 01:07:14;;;;;;;15.40;10.20;;;4.30;53.30;;;;;;5031498;28;20196;-58
2023/01/30 01:09:39;;;;;;;14.97;10.20;;;4.30;53.50;;;;;;5031659;28;20197;-58
2023/01/30 01:12:06;;;;;;;15.20;10.27;;;4.30;54.20;;;;;;5031149;28;20420;-58
2023/01/30 01:14:32;;;;;;;16.30;11.20;;;4.30;54.10;;;;;;5022332;28;20228;-58
2023/01/30 01:16:58;;;;;;;14.40;10.23;;;4.30;54.00;;;;;;5031348;28;20530;-58
2023/01/30 01:19:23;;;;;;;15.80;10.40;;;4.30;53.80;;;;;;5029563;28;21026;-58
2023/01/30 01:21:49;;;;;;;17.40;10.03;;;4.30;53.80;;;;;;5031589;28;20212;-58
2023/01/30 01:24:15;;;;;;;13.10;9.27;;;4.30;54.00;;;;;;5030989;28;20203;-58
2023/01/30 01:26:42;;;;;;;17.63;10.57;;;4.30;54.20;;;;;;5031208;28;20953;-58
2023/01/30 01:29:14;;;;;;;15.90;11.67;;;4.40;54.20;;;;;;5030942;28;20530;-58
2023/01/30 01:31:40;;;;;;;16.27;11.43;;;4.40;54.40;;;;;;5030979;28;20467;-58
2023/01/30 01:34:06;;;;;;;15.23;11.10;;;4.40;54.50;;;;;;5030543;28;20424;-58
2023/01/30 01:36:31;;;;;;;14.53;10.60;;;4.50;54.60;;;;;;5031209;28;20974;-58
2023/01/30 01:38:57;;;;;;;14.37;9.93;;;4.50;54.60;;;;;;5030974;28;20228;-58
2023/01/30 01:41:23;;;;;;;14.47;10.27;;;4.60;54.70;;;;;;5031160;28;20189;-58
2023/01/30 01:44:02;;;;;;;15.93;10.67;;;4.60;54.60;;;;;;5030638;28;20203;-58
2023/01/30 01:46:39;;;;;;;20.73;10.80;;;4.60;54.50;;;;;;5029540;28;20552;-58
2023/01/30 01:49:12;;;;;;;13.57;11.10;;;4.60;54.10;;;;;;5031069;28;20950;-58
2023/01/30 01:51:46;;;;;;;12.13;10.13;;;4.50;54.00;;;;;;5030775;28;20432;-58
2023/01/30 01:54:18;;;;;;;15.07;10.60;;;4.50;53.90;;;;;;5030619;28;20459;-58
2023/01/30 01:56:46;;;;;;;17.37;10.30;;;4.50;53.90;;;;;;5030999;28;20759;-58
2023/01/30 01:59:41;;;;;;;15.70;11.23;;;4.50;53.90;;;;;;5030841;28;20491;-58
2023/01/30 02:02:11;;;;;;;16.87;10.43;;;4.50;54.50;;;;;;5029656;28;20444;-58
2023/01/30 02:07:27;;;;;;;16.10;11.30;;;4.50;55.20;;;;;;5030964;28;20442;-58
2023/01/30 02:09:53;;;;;;;14.73;10.80;;;4.60;55.10;;;;;;5030782;28;20451;-58
2023/01/30 02:12:19;;;;;;;15.50;11.50;;;4.60;54.90;;;;;;5028735;28;20424;-59
2023/01/30 02:14:47;;;;;;;17.70;12.53;;;4.60;54.90;;;;;;5021417;28;20424;-58
2023/01/30 02:17:12;;;;;;;17.10;12.40;;;4.60;54.80;;;;;;5030747;28;20256;-58
2023/01/30 02:19:57;;;;;;;20.03;13.90;;;4.70;54.60;;;;;;5030598;28;20483;-58
2023/01/30 02:23:00;;;;;;;20.50;12.70;;;4.70;54.40;;;;;;5030244;28;20217;-58
2023/01/30 02:25:48;;;;;;;18.53;14.03;;;4.60;54.20;;;;;;5045713;28;20447;-58
2023/01/30 02:28:48;;;;;;;22.47;14.70;;;4.60;54.10;;;;;;5030554;28;20442;-58
2023/01/30 02:31:23;;;;;;;27.43;14.97;;;4.60;53.90;;;;;;5034206;28;20472;-58
2023/01/30 02:34:00;;;;;;;18.30;13.30;;;4.60;53.80;;;;;;5034163;28;20847;-58
2023/01/30 02:36:44;;;;;;;20.67;13.87;;;4.60;53.90;;;;;;5034234;28;20427;-58
2023/01/30 02:39:22;;;;;;;20.83;12.93;;;4.60;54.30;;;;;;5032555;28;20506;-58
2023/01/30 02:42:02;;;;;;;16.50;12.80;;;4.60;54.50;;;;;;5034221;28;20485;-58
2023/01/30 02:44:50;;;;;;;17.33;12.53;;;4.60;54.50;;;;;;5034319;28;20432;-59
2023/01/30 02:47:41;;;;;;;16.50;12.33;;;4.60;54.50;;;;;;5033022;28;20526;-58
2023/01/30 02:50:20;;;;;;;18.73;11.37;;;4.50;54.30;;;;;;5034043;28;20537;-58
2023/01/30 02:52:47;;;;;;;18.70;12.37;;;4.50;54.80;;;;;;5033775;28;20461;-58
2023/01/30 02:55:22;;;;;;;17.90;11.77;;;4.50;54.80;;;;;;5034031;28;20428;-58
2023/01/30 02:57:47;;;;;;;18.20;12.67;;;4.50;54.70;;;;;;5034121;28;20441;-59
2023/01/30 03:00:18;;;;;;;19.03;12.93;;;4.50;54.60;;;;;;5034032;28;20593;-59
2023/01/30 03:03:27;;;;;;;15.00;12.20;;;4.50;54.50;;;;;;5033653;28;20194;-58
2023/01/30 03:06:04;;;;;;;20.27;12.13;;;4.20;54.70;;;;;;5032293;28;20515;-58
2023/01/30 03:08:41;;;;;;;17.83;12.43;;;4.00;55.50;;;;;;5022052;28;20436;-58
2023/01/30 03:11:08;;;;;;;22.07;11.50;;;4.10;55.80;;;;;;5033837;28;20854;-58
2023/01/30 03:14:14;;;;;;;16.93;11.30;;;4.20;55.50;;;;;;5027774;28;20829;-58
2023/01/30 03:16:40;;;;;;;18.30;12.50;;;4.20;55.20;;;;;;5022346;28;20467;-58
2023/01/30 03:19:11;;;;;;;15.30;10.87;;;4.20;55.00;;;;;;5033477;28;20475;-58
2023/01/30 03:21:44;;;;;;;14.90;10.30;;;4.10;55.00;;;;;;5033616;28;20489;-58
2023/01/30 03:24:10;;;;;;;15.20;10.93;;;3.90;55.50;;;;;;5033362;28;20441;-58
2023/01/30 03:26:43;;;;;;;17.30;10.80;;;3.50;56.90;;;;;;5033541;28;20814;-58
2023/01/30 03:29:08;;;;;;;16.70;11.47;;;3.10;58.30;;;;;;5033456;28;20424;-58
2023/01/30 03:31:34;;;;;;;14.30;9.90;;;2.70;59.30;;;;;;5033456;28;20464;-58
2023/01/30 03:33:59;;;;;;;14.40;11.13;;;2.20;60.70;;;;;;5030025;28;20193;-58
2023/01/30 03:36:25;;;;;;;15.50;10.77;;;1.90;62.40;;;;;;5033287;28;20193;-58
2023/01/30 03:38:51;;;;;;;15.20;10.47;;;1.70;63.30;;;;;;5033067;28;20200;-58
2023/01/30 03:41:17;;;;;;;14.47;10.30;;;1.60;64.20;;;;;;5032076;28;20285;-58
2023/01/30 03:43:42;;;;;;;16.73;10.57;;;1.70;65.00;;;;;;5032754;28;20830;-58
2023/01/30 03:46:08;;;;;;;17.30;10.57;;;2.00;64.50;;;;;;5033007;28;20216;-58
2023/01/30 03:48:33;;;;;;;14.47;9.43;;;2.30;63.70;;;;;;5033234;28;20216;-59
2023/01/30 03:50:59;;;;;;;13.90;9.30;;;2.50;63.20;;;;;;5032941;28;20204;-58
2023/01/30 03:53:24;;;;;;;14.77;10.23;;;2.60;62.40;;;;;;5032557;28;20227;-58
2023/01/30 03:55:50;;;;;;;13.80;10.30;;;2.90;61.70;;;;;;5032944;28;20189;-58
2023/01/30 03:58:16;;;;;;;16.63;11.43;;;3.40;60.80;;;;;;5032945;28;20189;-58
2023/01/30 04:00:41;;;;;;;13.03;10.40;;;3.60;59.80;;;;;;5031147;28;20703;-58
2023/01/30 04:03:07;;;;;;;12.87;9.30;;;3.70;59.00;;;;;;5032399;28;20232;-58
2023/01/30 04:05:33;;;;;;;16.70;10.73;;;3.60;58.90;;;;;;5032806;28;20189;-58
2023/01/30 04:07:58;;;;;;;13.93;9.13;;;3.60;59.10;;;;;;5032531;28;20197;-58
2023/01/30 04:10:24;;;;;;;13.20;9.27;;;3.70;59.00;;;;;;5032752;28;20197;-58
2023/01/30 04:12:50;;;;;;;14.20;9.30;;;3.90;59.00;;;;;;5032223;28;20308;-58
2023/01/30 04:15:16;;;;;;;16.50;9.37;;;4.10;58.60;;;;;;5023613;28;20888;-58
2023/01/30 04:17:46;;;;;;;10.90;8.10;;;4.00;57.80;;;;;;5032598;28;20185;-58
2023/01/30 04:20:12;;;;;;;13.03;8.90;;;4.10;57.40;;;;;;5032676;28;20224;-58
2023/01/30 04:22:37;;;;;;;13.40;9.13;;;4.40;57.10;;;;;;5032079;28;20421;-58
2023/01/30 04:25:03;;;;;;;12.07;9.43;;;4.50;56.80;;;;;;5032432;28;20194;-58
2023/01/30 04:27:29;;;;;;;14.30;9.33;;;4.70;56.50;;;;;;5030619;28;20189;-59
2023/01/30 04:29:54;;;;;;;11.83;8.73;;;4.70;56.30;;;;;;5032382;28;20322;-58
2023/01/30 04:32:20;;;;;;;12.67;8.63;;;4.80;56.30;;;;;;5031801;28;20308;-58
2023/01/30 04:34:45;;;;;;;12.93;8.70;;;4.70;56.10;;;;;;5032297;28;20193;-58
2023/01/30 04:37:12;;;;;;;12.80;9.37;;;4.70;56.20;;;;;;5032355;28;20197;-58
2023/01/30 04:39:37;;;;;;;12.03;8.17;;;4.50;56.30;;;;;;5032297;28;20243;-58
2023/01/30 04:42:05;;;;;;;11.10;8.27;;;4.70;56.60;;;;;;5031432;28;20912;-58
2023/01/30 04:44:31;;;;;;;12.37;8.23;;;4.80;56.20;;;;;;5032053;28;20199;-58
2023/01/30 04:46:56;;;;;;;10.70;8.23;;;4.90;55.60;;;;;;5031946;28;20429;-58
2023/01/30 04:49:22;;;;;;;16.00;9.23;;;5.00;55.40;;;;;;5031917;28;20193;-58
2023/01/30 04:51:47;;;;;;;13.07;8.47;;;5.00;54.90;;;;;;5031532;28;20197;-58
2023/01/30 04:54:13;;;;;;;10.13;7.57;;;4.90;54.80;;;;;;5030121;28;20641;-58
2023/01/30 04:56:38;;;;;;;9.90;7.63;;;4.80;54.80;;;;;;5031800;28;20281;-59
2023/01/30 04:59:04;;;;;;;10.50;7.40;;;4.70;55.10;;;;;;5031911;28;20263;-58
2023/01/30 05:01:31;;;;;;;11.83;7.80;;;4.80;55.30;;;;;;5031598;28;20201;-58
2023/01/30 05:03:57;;;;;;;10.73;7.93;;;4.70;55.40;;;;;;5031439;28;20220;-58
2023/01/30 05:06:23;;;;;;;9.97;7.10;;;4.80;55.10;;;;;;5031606;28;20455;-58
2023/01/30 05:08:50;;;;;;;9.83;7.20;;;5.00;55.00;;;;;;5031921;28;20430;-58
2023/01/30 05:11:16;;;;;;;10.80;7.40;;;5.00;54.60;;;;;;5031651;28;20908;-58
2023/01/30 05:13:42;;;;;;;10.47;7.13;;;5.00;54.50;;;;;;5031174;28;20432;-59
2023/01/30 05:16:09;;;;;;;13.00;7.33;;;5.10;54.20;;;;;;5031626;28;20295;-58
2023/01/30 05:18:35;;;;;;;9.70;7.40;;;5.20;54.10;;;;;;5031379;28;20444;-58
2023/01/30 05:21:05;;;;;;;13.23;8.13;;;5.30;54.20;;;;;;5029628;28;20518;-58
2023/01/30 05:23:33;;;;;;;8.47;6.70;;;5.40;54.10;;;;;;5031076;28;20335;-58
2023/01/30 05:25:59;;;;;;;8.60;7.07;;;5.40;54.10;;;;;;5031176;28;20424;-58
2023/01/30 05:28:25;;;;;;;8.70;6.73;;;5.40;54.10;;;;;;5031375;28;20425;-59
2023/01/30 05:30:51;;;;;;;8.63;6.53;;;5.50;53.90;;;;;;5031180;28;20476;-58
2023/01/30 05:33:17;;;;;;;10.57;7.23;;;5.40;53.70;;;;;;5030952;28;20201;-58
2023/01/30 05:35:49;;;;;;;9.03;6.60;;;5.40;53.80;;;;;;5031148;28;20239;-58
2023/01/30 05:38:15;;;;;;;10.20;7.33;;;5.40;53.80;;;;;;5031224;28;20768;-58
2023/01/30 05:40:41;;;;;;;10.67;6.30;;;5.40;53.70;;;;;;5031019;28;20484;-58
2023/01/30 05:43:08;;;;;;;10.37;6.53;;;5.50;53.60;;;;;;5030719;28;20436;-58
2023/01/30 05:45:34;;;;;;;8.30;6.87;;;5.70;53.30;;;;;;5029957;28;20419;-58
2023/01/30 05:48:00;;;;;;;9.73;7.27;;;5.60;53.10;;;;;;5030419;28;20489;-58
2023/01/30 05:50:25;;;;;;;10.33;7.03;;;5.70;53.00;;;;;;5031082;28;20444;-58
2023/01/30 05:52:51;;;;;;;7.67;6.60;;;5.80;52.50;;;;;;5030930;28;20714;-58
2023/01/30 05:55:16;;;;;;;8.73;6.20;;;5.70;52.40;;;;;;5030972;28;20304;-58
2023/01/30 05:57:42;;;;;;;8.37;6.60;;;5.50;52.50;;;;;;5031003;28;20185;-58
2023/01/30 06:00:09;;;;;;;9.67;7.10;;;5.40;52.90;;;;;;5030642;28;20229;-59
2023/01/30 06:02:35;;;;;;;9.83;6.63;;;5.20;53.40;;;;;;5030401;28;20700;-58
2023/01/30 06:05:01;;;;;;;10.97;6.47;;;5.00;53.60;;;;;;5030227;28;20423;-58
2023/01/30 06:07:26;;;;;;;9.70;7.40;;;5.10;54.00;;;;;;5030815;28;20247;-58
2023/01/30 06:09:52;;;;;;;8.00;6.20;;;5.30;53.90;;;;;;5030738;28;20185;-58
2023/01/30 06:12:17;;;;;;;9.53;6.50;;;5.20;53.90;;;;;;5029415;28;20216;-58
2023/01/30 06:14:43;;;;;;;11.30;6.60;;;5.20;54.00;;;;;;5021386;28;20200;-58
2023/01/30 06:17:08;;;;;;;13.10;8.20;;;5.10;54.10;;;;;;5030768;28;20985;-58
2023/01/30 06:19:34;;;;;;;12.13;7.73;;;4.90;54.10;;;;;;5030585;28;20244;-58
2023/01/30 06:22:01;;;;;;;9.43;7.33;;;5.00;54.70;;;;;;5030298;28;20220;-58
2023/01/30 06:24:27;;;;;;;10.40;6.90;;;5.10;54.60;;;;;;5030504;28;20193;-58
2023/01/30 06:26:53;;;;;;;9.40;6.13;;;5.20;54.50;;;;;;5030615;28;20791;-58
2023/01/30 06:29:18;;;;;;;10.70;7.07;;;5.10;54.30;;;;;;5030751;28;20276;-59
2023/01/30 06:31:44;;;;;;;8.53;7.03;;;5.20;54.50;;;;;;5030106;28;20616;-58
2023/01/30 06:34:10;;;;;;;8.00;6.43;;;5.30;54.30;;;;;;5030545;28;20201;-58
2023/01/30 06:36:36;;;;;;;9.30;7.40;;;5.40;54.20;;;;;;5030639;28;20212;-58
2023/01/30 06:39:02;;;;;;;15.10;8.00;;;5.40;54.10;;;;;;5029025;28;20954;-58
2023/01/30 06:41:27;;;;;;;8.80;6.43;;;5.40;53.80;;;;;;5030107;28;20209;-58
2023/01/30 06:43:54;;;;;;;8.67;6.30;;;5.30;54.10;;;;;;5030491;28;20431;-58
2023/01/30 06:46:20;;;;;;;8.60;6.07;;;5.20;54.10;;;;;;5030648;28;20204;-58
2023/01/30 06:48:45;;;;;;;11.73;8.57;;;5.40;54.00;;;;;;5030439;28;20416;-58
2023/01/30 06:51:11;;;;;;;10.90;6.20;;;5.20;54.00;;;;;;5029301;28;20591;-58
2023/01/30 06:53:36;;;;;;;9.07;6.47;;;5.30;54.10;;;;;;5029987;28;20197;-58
2023/01/30 06:56:02;;;;;;;8.90;7.03;;;5.50;54.10;;;;;;5030595;28;20306;-58
2023/01/30 06:58:28;;;;;;;9.30;7.10;;;5.60;53.60;;;;;;5030226;28;20202;-58
2023/01/30 07:00:54;;;;;;;10.27;7.20;;;5.70;53.50;;;;;;5030332;28;21040;-58
2023/01/30 07:03:19;;;;;;;8.87;6.43;;;5.70;53.50;;;;;;5029839;28;20189;-58
2023/01/30 07:05:46;;;;;;;10.13;7.20;;;5.60;53.40;;;;;;5028860;28;20524;-58
2023/01/30 07:08:13;;;;;;;10.37;7.00;;;5.50;53.70;;;;;;5030184;28;20201;-58
2023/01/30 07:10:39;;;;;;;10.80;7.83;;;5.40;54.20;;;;;;5030354;28;20416;-58
2023/01/30 07:13:05;;;;;;;8.60;6.00;;;5.70;53.90;;;;;;5028071;28;20420;-58
2023/01/30 07:15:31;;;;;;;12.20;7.70;;;5.70;53.60;;;;;;5023999;28;20515;-58
2023/01/30 07:17:57;;;;;;;9.80;7.07;;;5.90;53.30;;;;;;5033702;28;20201;-58
2023/01/30 07:20:23;;;;;;;8.97;7.47;;;6.00;53.10;;;;;;5033539;28;20483;-58
2023/01/30 07:22:53;;;;;;;8.77;6.93;;;6.00;53.20;;;;;;5033292;28;20205;-58
2023/01/30 07:25:20;;;;;;;9.20;6.70;;;6.00;53.10;;;;;;5033609;28;20447;-58
2023/01/30 07:27:54;;;;;;;9.77;6.30;;;6.00;53.10;;;;;;5033751;28;20430;-58
2023/01/30 07:30:19;;;;;;;9.20;6.60;;;6.20;53.00;;;;;;5033344;28;20428;-59
2023/01/30 07:32:53;;;;;;;7.50;6.70;;;6.30;52.90;;;;;;5031508;28;20529;-58
2023/01/30 07:35:19;;;;;;;8.90;6.80;;;6.20;52.80;;;;;;5033687;28;20808;-58
2023/01/30 07:37:46;;;;;;;8.60;7.07;;;6.20;52.80;;;;;;5033526;28;20535;-58
2023/01/30 07:40:12;;;;;;;10.67;6.50;;;6.30;52.80;;;;;;5033319;28;20479;-58
2023/01/30 07:42:38;;;;;;;9.33;6.67;;;6.20;52.70;;;;;;5032806;28;20771;-58
2023/01/30 07:45:03;;;;;;;9.73;6.37;;;6.30;52.70;;;;;;5033140;28;20458;-58
2023/01/30 07:47:29;;;;;;;12.50;6.20;;;6.40;52.80;;;;;;5033135;28;20193;-59
2023/01/30 07:49:55;;;;;;;8.10;5.77;;;6.30;52.90;;;;;;5033221;28;20753;-58
2023/01/30 07:52:21;;;;;;;11.10;7.20;;;6.20;53.00;;;;;;5032742;28;20424;-58
2023/01/30 07:54:46;;;;;;;8.50;6.43;;;6.40;53.00;;;;;;5033195;28;20197;-58
2023/01/30 07:57:12;;;;;;;11.57;6.80;;;6.40;52.80;;;;;;5033114;28;20192;-58
2023/01/30 07:59:37;;;;;;;7.43;6.20;;;6.50;52.80;;;;;;5031205;28;20233;-58
2023/01/30 08:02:03;;;;;;;7.37;6.10;;;6.40;52.80;;;;;;5032504;28;20607;-58
2023/01/30 08:04:28;;;;;;;8.73;6.20;;;6.50;52.70;;;;;;5032703;28;20216;-58
2023/01/30 08:06:54;;;;;;;7.87;6.03;;;6.50;52.80;;;;;;5032786;28;20273;-58
2023/01/30 08:09:19;;;;;;;8.57;6.53;;;6.40;52.70;;;;;;5032858;28;20201;-58
2023/01/30 08:11:45;;;;;;;9.50;6.60;;;6.40;52.70;;;;;;5032636;28;20566;-58
2023/01/30 08:14:11;;;;;;;9.90;6.97;;;6.30;52.60;;;;;;5024164;28;20202;-58
2023/01/30 08:16:37;;;;;;;8.10;6.00;;;6.40;52.90;;;;;;5032818;28;20197;-59
2023/01/30 08:19:05;;;;;;;11.30;7.43;;;6.30;53.00;;;;;;5032599;28;20224;-59
2023/01/30 08:21:30;;;;;;;18.17;7.47;;;6.30;53.40;;;;;;5032155;28;20432;-59
2023/01/30 08:23:56;;;;;;;26.00;7.80;;;6.10;54.10;;;;;;5032486;28;20428;-59
2023/01/30 08:26:22;;;;;;;7.60;5.90;;;6.00;54.50;;;;;;5030999;28;20511;-59
2023/01/30 08:28:47;;;;;;;10.93;7.00;;;6.10;54.70;;;;;;5031954;28;20201;-59
2023/01/30 08:31:14;;;;;;;10.50;7.10;;;6.10;55.10;;;;;;5032190;28;20240;-59
2023/01/30 08:33:40;;;;;;;14.00;7.33;;;6.10;55.40;;;;;;5032310;28;20692;-59
2023/01/30 08:36:06;;;;;;;9.93;6.40;;;6.00;55.70;;;;;;5032270;28;20481;-59
2023/01/30 08:38:31;;;;;;;8.20;6.33;;;6.00;56.00;;;;;;5032241;28;20243;-59
2023/01/30 08:40:58;;;;;;;10.60;6.90;;;6.00;56.20;;;;;;5032050;28;20488;-59
2023/01/30 08:43:25;;;;;;;8.23;6.30;;;6.10;56.30;;;;;;5031791;28;20638;-59
2023/01/30 08:45:53;;;;;;;8.33;6.43;;;6.20;56.20;;;;;;5032330;28;20420;-58
2023/01/30 08:48:19;;;;;;;9.43;6.30;;;6.00;56.00;;;;;;5032272;28;20189;-59
2023/01/30 08:50:44;;;;;;;8.70;6.63;;;6.00;56.20;;;;;;5032109;28;20423;-59
2023/01/30 08:53:10;;;;;;;9.70;6.93;;;5.70;56.40;;;;;;5030083;28;20622;-58
2023/01/30 08:55:35;;;;;;;7.57;6.37;;;5.90;56.80;;;;;;5031921;28;20255;-59
2023/01/30 08:58:01;;;;;;;7.77;5.73;;;6.00;56.80;;;;;;5031933;28;20288;-59
2023/01/30 09:00:27;;;;;;;7.80;5.60;;;5.90;56.60;;;;;;5031712;28;20643;-59
2023/01/30 09:02:56;;;;;;;8.90;6.50;;;6.00;56.80;;;;;;5031388;28;20193;-59
2023/01/30 09:05:23;;;;;;;9.00;6.97;;;6.10;56.50;;;;;;5031705;28;20793;-59
2023/01/30 09:07:49;;;;;;;10.07;6.30;;;6.20;56.40;;;;;;5031646;28;20436;-59
2023/01/30 09:10:15;;;;;;;8.07;6.07;;;6.20;56.00;;;;;;5031724;28;20911;-59
2023/01/30 09:12:41;;;;;;;6.83;5.60;;;6.10;56.10;;;;;;5031135;28;20420;-59
2023/01/30 09:15:07;;;;;;;8.60;5.77;;;6.10;56.20;;;;;;5022299;28;20432;-60
2023/01/30 09:17:32;;;;;;;6.77;5.50;;;6.50;56.10;;;;;;5031360;28;20200;-59
2023/01/30 09:19:58;;;;;;;8.27;5.80;;;6.70;55.70;;;;;;5029723;28;21035;-59
2023/01/30 09:22:24;;;;;;;7.43;5.77;;;6.40;55.50;;;;;;5030846;28;20201;-59
2023/01/30 09:24:49;;;;;;;7.30;5.40;;;6.70;55.10;;;;;;5031520;28;20197;-59
2023/01/30 09:27:15;;;;;;;8.40;5.93;;;6.80;54.60;;;;;;5031438;28;20185;-59
2023/01/30 09:29:40;;;;;;;7.90;5.10;;;7.00;54.30;;;;;;5031527;28;20195;-59
2023/01/30 09:32:06;;;;;;;6.67;4.60;;;7.00;54.10;;;;;;5030790;28;20256;-59
2023/01/30 09:34:31;;;;;;;7.20;4.97;;;7.10;54.20;;;;;;5031218;28;20197;-59
2023/01/30 09:37:02;;;;;;;6.30;4.60;;;7.10;54.10;;;;;;5031190;28;20540;-59
2023/01/30 09:39:27;;;;;;;6.03;5.00;;;7.00;54.20;;;;;;5030239;28;20431;-59
2023/01/30 09:42:31;;;;;;;6.00;5.37;;;7.10;54.20;;;;;;5030894;28;20419;-59
2023/01/30 09:45:00;;;;;;;7.07;5.00;;;7.10;54.20;;;;;;5029776;28;20446;-59
2023/01/30 09:47:43;;;;;;;9.70;5.70;;;7.20;54.30;;;;;;5029526;28;20424;-59
2023/01/30 09:50:27;;;;;;;8.00;5.40;;;6.90;54.80;;;;;;5031028;28;20439;-59
2023/01/30 09:52:55;;;;;;;7.40;5.17;;;6.80;55.20;;;;;;5030769;28;20436;-59
2023/01/30 09:55:28;;;;;;;6.40;4.90;;;6.80;55.10;;;;;;5031165;28;20427;-59
2023/01/30 09:57:56;;;;;;;7.40;5.63;;;6.90;55.30;;;;;;5030974;28;20432;-59
2023/01/30 10:00:35;;;;;;;5.63;4.70;;;6.40;55.60;;;;;;5030846;28;20495;-59
2023/01/30 10:03:07;;;;;;;7.50;5.20;;;6.40;56.20;;;;;;5030490;28;20489;-59
2023/01/30 10:05:49;;;;;;;6.23;4.97;;;6.60;56.10;;;;;;5030883;28;20454;-59
2023/01/30 10:08:32;;;;;;;7.53;5.03;;;6.30;56.30;;;;;;5030801;28;20424;-59
2023/01/30 10:11:12;;;;;;;6.47;4.50;;;6.40;56.80;;;;;;5030690;28;20440;-59
2023/01/30 10:14:14;;;;;;;5.83;4.77;;;6.30;57.20;;;;;;5029287;28;20435;-59
2023/01/30 10:17:21;;;;;;;5.80;4.13;;;6.30;57.50;;;;;;5030959;28;20427;-59
2023/01/30 10:19:49;;;;;;;6.07;3.97;;;6.20;58.20;;;;;;5024515;28;20502;-59
2023/01/30 10:22:27;;;;;;;4.57;4.03;;;6.30;58.30;;;;;;5030359;28;20916;-59
2023/01/30 10:25:11;;;;;;;7.40;3.80;;;6.50;58.30;;;;;;5030704;28;20485;-59
2023/01/30 10:27:45;;;;;;;5.30;3.90;;;6.60;57.90;;;;;;5030588;28;20494;-59
2023/01/30 10:30:13;;;;;;;3.87;3.33;;;6.50;58.20;;;;;;5030677;28;20488;-59
2023/01/30 10:32:54;;;;;;;4.57;3.63;;;6.30;58.60;;;;;;5030187;28;20459;-59
2023/01/30 10:35:28;;;;;;;4.20;3.50;;;6.40;59.00;;;;;;5030443;28;20438;-59
2023/01/30 10:38:11;;;;;;;3.30;2.60;;;6.60;58.90;;;;;;5030562;28;20431;-59
2023/01/30 10:40:46;;;;;;;3.97;3.20;;;6.80;59.20;;;;;;5028637;28;20997;-59
2023/01/30 10:43:20;;;;;;;5.87;3.23;;;6.70;58.70;;;;;;5030073;28;20471;-59
2023/01/30 10:46:19;;;;;;;3.73;3.00;;;6.80;58.70;;;;;;5030674;28;20456;-59
2023/01/30 10:49:01;;;;;;;5.60;3.27;;;6.90;58.80;;;;;;5030444;28;20965;-59
2023/01/30 10:51:35;;;;;;;3.63;2.93;;;7.10;58.80;;;;;;5032332;28;20448;-59
2023/01/30 10:54:29;;;;;;;2.83;2.37;;;6.90;58.50;;;;;;5034322;28;20473;-59
2023/01/30 10:57:04;;;;;;;3.10;2.70;;;6.90;58.80;;;;;;5034138;28;20853;-59
2023/01/30 10:59:46;;;;;;;2.47;2.27;;;6.90;59.70;;;;;;5034115;28;20471;-59
2023/01/30 11:02:18;;;;;;;4.43;2.60;;;6.70;60.10;;;;;;5033729;28;20486;-59
2023/01/30 11:05:14;;;;;;;4.33;2.57;;;6.70;61.50;;;;;;5034024;28;20460;-59
2023/01/30 11:07:42;;;;;;;2.80;2.10;;;7.00;62.00;;;;;;5032239;28;20448;-60
2023/01/30 11:10:34;;;;;;;2.63;1.80;;;6.80;62.10;;;;;;5034007;28;20463;-59
2023/01/30 11:13:16;;;;;;;2.70;2.50;;;7.10;63.00;;;;;;5031727;28;20454;-59
2023/01/30 11:15:44;;;;;;;2.47;2.23;;;7.20;63.00;;;;;;5027776;28;20434;-59
2023/01/30 11:18:11;;;;;;;5.40;2.23;;;7.10;62.40;;;;;;5033692;28;20859;-59
2023/01/30 11:20:44;;;;;;;2.90;2.60;;;7.20;62.80;;;;;;5033581;28;20915;-59
2023/01/30 11:23:30;;;;;;;3.27;2.20;;;7.40;63.50;;;;;;5033368;28;20819;-59
2023/01/30 11:25:57;;;;;;;3.97;2.23;;;7.20;61.70;;;;;;5033808;28;20428;-59
2023/01/30 11:28:26;;;;;;;2.90;2.30;;;7.10;62.50;;;;;;5033682;28;20515;-59
2023/01/30 11:30:59;;;;;;;3.13;2.30;;;6.90;62.50;;;;;;5033462;28;20427;-58
2023/01/30 11:33:34;;;;;;;3.13;2.43;;;7.00;63.20;;;;;;5032072;28;20420;-58
2023/01/30 11:36:01;;;;;;;3.73;1.80;;;7.20;62.90;;;;;;5033487;28;20486;-58
2023/01/30 11:38:29;;;;;;;2.73;2.43;;;7.00;63.00;;;;;;5033541;28;20428;-59
2023/01/30 11:41:24;;;;;;;2.03;1.93;;;7.00;63.70;;;;;;5033053;28;20479;-59
2023/01/30 11:43:50;;;;;;;2.13;1.90;;;7.00;64.20;;;;;;5032590;28;20436;-59
2023/01/30 11:46:18;;;;;;;3.30;2.50;;;6.90;64.60;;;;;;5033507;28;20939;-59
2023/01/30 11:48:57;;;;;;;2.87;2.57;;;6.70;65.50;;;;;;5033382;28;20189;-59
2023/01/30 11:51:24;;;;;;;3.00;2.70;;;6.70;66.40;;;;;;5032826;28;20456;-59
2023/01/30 11:54:24;;;;;;;6.50;2.77;;;6.90;66.70;;;;;;5032070;28;20954;-59
2023/01/30 11:56:55;;;;;;;5.10;2.80;;;6.70;67.10;;;;;;5032696;28;20456;-59
2023/01/30 11:59:41;;;;;;;5.30;2.57;;;6.30;68.60;;;;;;5031113;28;20472;-59
2023/01/30 12:02:30;;;;;;;3.10;2.50;;;6.30;69.50;;;;;;5031750;28;20833;-58
2023/01/30 12:05:03;;;;;;;7.10;2.80;;;6.30;69.80;;;;;;5032779;28;20474;-59
2023/01/30 12:07:32;;;;;;;4.87;2.70;;;6.40;69.80;;;;;;5032898;28;20432;-59
2023/01/30 12:09:58;;;;;;;5.57;3.20;;;6.40;69.90;;;;;;5032843;28;20778;-59
2023/01/30 12:12:33;;;;;;;3.37;3.07;;;6.60;70.00;;;;;;5032537;28;20429;-59
2023/01/30 12:15:28;;;;;;;4.13;3.00;;;6.40;69.80;;;;;;5023647;28;20942;-59
2023/01/30 12:18:07;;;;;;;6.27;5.00;;;6.60;70.20;;;;;;5032639;28;20429;-59
2023/01/30 12:20:45;;;;;;;5.13;3.53;;;6.70;69.80;;;;;;5031361;28;20499;-59
2023/01/30 12:23:17;;;;;;;11.40;3.53;;;6.90;69.20;;;;;;5032276;28;20439;-59
2023/01/30 12:25:51;;;;;;;4.20;3.30;;;7.10;68.80;;;;;;5031862;28;20582;-58
2023/01/30 12:28:36;;;;;;;5.80;3.93;;;7.10;68.50;;;;;;5032379;28;20486;-59
2023/01/30 12:31:06;;;;;;;46.53;23.90;;;7.30;68.20;;;;;;5031943;28;20478;-59
2023/01/30 12:33:34;;;;;;;31.70;17.70;;;7.50;67.90;;;;;;5032262;28;20505;-59
2023/01/30 12:36:11;;;;;;;7.73;4.97;;;7.50;67.80;;;;;;5032325;28;20416;-59
2023/01/30 12:38:48;;;;;;;5.57;3.30;;;7.70;67.90;;;;;;5032131;28;20439;-58
2023/01/30 12:41:26;;;;;;;3.63;3.13;;;7.70;67.70;;;;;;5031816;28;20493;-58
2023/01/30 12:44:23;;;;;;;4.97;4.43;;;7.70;67.90;;;;;;5032128;28;20438;-58
2023/01/30 12:46:55;;;;;;;7.87;4.10;;;7.80;67.70;;;;;;5032125;28;20527;-57
2023/01/30 12:49:27;;;;;;;15.00;4.80;;;7.90;67.20;;;;;;5032069;28;20431;-58
2023/01/30 12:52:13;;;;;;;7.20;4.33;;;7.90;67.40;;;;;;5031567;28;20466;-57
2023/01/30 12:55:05;;;;;;;5.80;3.27;;;7.70;67.40;;;;;;5030321;28;20435;-57
2023/01/30 12:57:48;;;;;;;5.83;3.47;;;7.60;68.20;;;;;;5031998;28;20442;-57
2023/01/30 13:00:39;;;;;;;13.17;4.10;;;7.50;68.40;;;;;;5031670;28;20484;-57
2023/01/30 13:03:17;;;;;;;7.60;3.77;;;7.60;68.70;;;;;;5027575;28;20419;-58
2023/01/30 13:05:46;;;;;;;6.03;3.70;;;7.60;68.40;;;;;;5031891;28;20967;-56
2023/01/30 13:08:30;;;;;;;6.27;4.43;;;7.60;68.50;;;;;;5031671;28;20436;-57
2023/01/30 13:11:08;;;;;;;7.00;4.10;;;7.70;68.10;;;;;;5031110;28;20796;-58
2023/01/30 13:13:41;;;;;;;6.80;3.27;;;7.60;67.60;;;;;;5026032;28;20433;-58